sensor_id;sensor_type;location;lat;lon;timestamp;P1;durP1;ratioP1;P2;durP2;ratioP2
26656;SDS011;14279;50.010;8.260;2022-07-10T00:02:16;4.40;;;2.30;;
26656;SDS011;14279;50.010;8.260;2022-07-10T00:04:41;2.50;;;2.10;;
26656;SDS011;14279;50.010;8.260;2022-07-10T00:07:06;4.90;;;1.80;;
26656;SDS011;14279;50.010;8.260;2022-07-10T00:09:32;3.80;;;2.00;;
26656;SDS011;14279;50.010;8.260;2022-07-10T00:11:57;5.00;;;1.67;;
26656;SDS011;14279;50.010;8.260;2022-07-10T00:14:22;7.37;;;1.83;;
26656;SDS011;14279;50.010;8.260;2022-07-10T00:16:48;3.93;;;1.97;;
26656;SDS011;14279;50.010;8.260;2022-07-10T00:19:13;5.80;;;1.80;;
26656;SDS011;14279;50.010;8.260;2022-07-10T00:21:38;5.03;;;2.10;;
26656;SDS011;14279;50.010;8.260;2022-07-10T00:24:04;5.60;;;1.87;;
26656;SDS011;14279;50.010;8.260;2022-07-10T00:26:29;5.33;;;2.10;;
26656;SDS011;14279;50.010;8.260;2022-07-10T00:28:55;4.43;;;1.90;;
26656;SDS011;14279;50.010;8.260;2022-07-10T00:31:20;7.77;;;2.00;;
26656;SDS011;14279;50.010;8.260;2022-07-10T00:33:45;8.13;;;2.37;;
26656;SDS011;14279;50.010;8.260;2022-07-10T00:36:11;8.00;;;1.90;;
26656;SDS011;14279;50.010;8.260;2022-07-10T00:38:36;13.43;;;2.10;;
26656;SDS011;14279;50.010;8.260;2022-07-10T00:41:01;7.20;;;1.83;;
26656;SDS011;14279;50.010;8.260;2022-07-10T00:43:26;5.47;;;1.80;;
26656;SDS011;14279;50.010;8.260;2022-07-10T00:45:52;5.80;;;1.90;;
26656;SDS011;14279;50.010;8.260;2022-07-10T00:48:17;5.43;;;1.83;;
26656;SDS011;14279;50.010;8.260;2022-07-10T00:50:42;12.37;;;2.93;;
26656;SDS011;14279;50.010;8.260;2022-07-10T00:53:09;4.97;;;2.20;;
26656;SDS011;14279;50.010;8.260;2022-07-10T00:55:35;9.20;;;1.90;;
26656;SDS011;14279;50.010;8.260;2022-07-10T00:58:01;6.00;;;2.07;;
26656;SDS011;14279;50.010;8.260;2022-07-10T01:00:26;4.77;;;2.20;;
26656;SDS011;14279;50.010;8.260;2022-07-10T01:02:52;5.80;;;2.20;;
26656;SDS011;14279;50.010;8.260;2022-07-10T01:05:18;4.97;;;2.00;;
26656;SDS011;14279;50.010;8.260;2022-07-10T01:07:44;3.77;;;1.50;;
26656;SDS011;14279;50.010;8.260;2022-07-10T01:10:09;8.30;;;2.23;;
26656;SDS011;14279;50.010;8.260;2022-07-10T01:12:34;5.80;;;2.23;;
26656;SDS011;14279;50.010;8.260;2022-07-10T01:15:01;11.00;;;2.70;;
26656;SDS011;14279;50.010;8.260;2022-07-10T01:17:26;6.67;;;2.20;;
26656;SDS011;14279;50.010;8.260;2022-07-10T01:19:54;4.70;;;1.90;;
26656;SDS011;14279;50.010;8.260;2022-07-10T01:22:19;5.23;;;2.23;;
26656;SDS011;14279;50.010;8.260;2022-07-10T01:24:45;9.30;;;1.93;;
26656;SDS011;14279;50.010;8.260;2022-07-10T01:27:10;9.37;;;2.10;;
26656;SDS011;14279;50.010;8.260;2022-07-10T01:29:35;3.20;;;1.70;;
26656;SDS011;14279;50.010;8.260;2022-07-10T01:32:01;10.83;;;1.97;;
26656;SDS011;14279;50.010;8.260;2022-07-10T01:34:27;5.23;;;1.80;;
26656;SDS011;14279;50.010;8.260;2022-07-10T01:36:52;4.90;;;1.93;;
26656;SDS011;14279;50.010;8.260;2022-07-10T01:39:18;3.70;;;2.03;;
26656;SDS011;14279;50.010;8.260;2022-07-10T01:41:43;16.93;;;2.33;;
26656;SDS011;14279;50.010;8.260;2022-07-10T01:44:08;6.80;;;2.33;;
26656;SDS011;14279;50.010;8.260;2022-07-10T01:46:34;3.40;;;2.10;;
26656;SDS011;14279;50.010;8.260;2022-07-10T01:48:59;8.10;;;2.07;;
26656;SDS011;14279;50.010;8.260;2022-07-10T01:51:24;7.17;;;2.27;;
26656;SDS011;14279;50.010;8.260;2022-07-10T01:53:49;3.90;;;1.80;;
26656;SDS011;14279;50.010;8.260;2022-07-10T01:56:15;4.27;;;2.23;;
26656;SDS011;14279;50.010;8.260;2022-07-10T01:58:40;4.97;;;2.00;;
26656;SDS011;14279;50.010;8.260;2022-07-10T02:01:07;8.67;;;2.30;;
26656;SDS011;14279;50.010;8.260;2022-07-10T02:03:32;5.30;;;1.90;;
26656;SDS011;14279;50.010;8.260;2022-07-10T02:06:16;5.10;;;1.70;;
26656;SDS011;14279;50.010;8.260;2022-07-10T02:08:41;7.13;;;2.03;;
26656;SDS011;14279;50.010;8.260;2022-07-10T02:11:07;8.90;;;2.50;;
26656;SDS011;14279;50.010;8.260;2022-07-10T02:13:32;5.30;;;2.07;;
26656;SDS011;14279;50.010;8.260;2022-07-10T02:15:58;4.90;;;2.27;;
26656;SDS011;14279;50.010;8.260;2022-07-10T02:18:23;6.90;;;2.20;;
26656;SDS011;14279;50.010;8.260;2022-07-10T02:20:50;10.73;;;2.33;;
26656;SDS011;14279;50.010;8.260;2022-07-10T02:23:16;5.70;;;2.00;;
26656;SDS011;14279;50.010;8.260;2022-07-10T02:25:42;5.63;;;1.87;;
26656;SDS011;14279;50.010;8.260;2022-07-10T02:28:08;4.80;;;2.10;;
26656;SDS011;14279;50.010;8.260;2022-07-10T02:30:33;9.17;;;2.10;;
26656;SDS011;14279;50.010;8.260;2022-07-10T02:32:59;7.07;;;2.17;;
26656;SDS011;14279;50.010;8.260;2022-07-10T02:35:24;6.90;;;1.93;;
26656;SDS011;14279;50.010;8.260;2022-07-10T02:37:49;6.83;;;1.93;;
26656;SDS011;14279;50.010;8.260;2022-07-10T02:40:15;7.03;;;2.00;;
26656;SDS011;14279;50.010;8.260;2022-07-10T02:42:40;5.23;;;2.13;;
26656;SDS011;14279;50.010;8.260;2022-07-10T02:45:06;6.00;;;2.20;;
26656;SDS011;14279;50.010;8.260;2022-07-10T02:47:32;5.47;;;2.20;;
26656;SDS011;14279;50.010;8.260;2022-07-10T02:49:57;6.27;;;2.63;;
26656;SDS011;14279;50.010;8.260;2022-07-10T02:52:22;2.57;;;2.00;;
26656;SDS011;14279;50.010;8.260;2022-07-10T02:54:48;11.97;;;2.70;;
26656;SDS011;14279;50.010;8.260;2022-07-10T02:57:13;9.03;;;2.13;;
26656;SDS011;14279;50.010;8.260;2022-07-10T02:59:38;8.10;;;1.80;;
26656;SDS011;14279;50.010;8.260;2022-07-10T03:02:04;10.90;;;3.00;;
26656;SDS011;14279;50.010;8.260;2022-07-10T03:04:29;7.23;;;2.80;;
26656;SDS011;14279;50.010;8.260;2022-07-10T03:06:54;5.93;;;2.13;;
26656;SDS011;14279;50.010;8.260;2022-07-10T03:09:20;8.93;;;2.73;;
26656;SDS011;14279;50.010;8.260;2022-07-10T03:11:45;7.07;;;2.43;;
26656;SDS011;14279;50.010;8.260;2022-07-10T03:14:10;6.20;;;1.67;;
26656;SDS011;14279;50.010;8.260;2022-07-10T03:16:36;6.33;;;2.00;;
26656;SDS011;14279;50.010;8.260;2022-07-10T03:19:01;12.13;;;2.07;;
26656;SDS011;14279;50.010;8.260;2022-07-10T03:21:26;6.73;;;1.90;;
26656;SDS011;14279;50.010;8.260;2022-07-10T03:23:52;15.50;;;2.50;;
26656;SDS011;14279;50.010;8.260;2022-07-10T03:26:17;5.30;;;2.20;;
26656;SDS011;14279;50.010;8.260;2022-07-10T03:28:42;5.13;;;1.97;;
26656;SDS011;14279;50.010;8.260;2022-07-10T03:31:07;9.03;;;2.23;;
26656;SDS011;14279;50.010;8.260;2022-07-10T03:33:33;10.03;;;2.33;;
26656;SDS011;14279;50.010;8.260;2022-07-10T03:35:58;3.63;;;1.53;;
26656;SDS011;14279;50.010;8.260;2022-07-10T03:38:26;14.10;;;2.00;;
26656;SDS011;14279;50.010;8.260;2022-07-10T03:40:51;4.93;;;1.97;;
26656;SDS011;14279;50.010;8.260;2022-07-10T03:43:16;3.53;;;1.93;;
26656;SDS011;14279;50.010;8.260;2022-07-10T03:45:41;4.70;;;1.97;;
26656;SDS011;14279;50.010;8.260;2022-07-10T03:48:06;5.43;;;2.27;;
26656;SDS011;14279;50.010;8.260;2022-07-10T03:50:32;5.17;;;1.70;;
26656;SDS011;14279;50.010;8.260;2022-07-10T03:52:57;7.10;;;2.43;;
26656;SDS011;14279;50.010;8.260;2022-07-10T03:55:23;4.17;;;1.90;;
26656;SDS011;14279;50.010;8.260;2022-07-10T03:57:48;10.00;;;1.67;;
26656;SDS011;14279;50.010;8.260;2022-07-10T04:00:20;8.20;;;1.83;;
26656;SDS011;14279;50.010;8.260;2022-07-10T04:02:58;6.00;;;2.00;;
26656;SDS011;14279;50.010;8.260;2022-07-10T04:05:25;14.20;;;2.40;;
26656;SDS011;14279;50.010;8.260;2022-07-10T04:07:52;6.37;;;1.90;;
26656;SDS011;14279;50.010;8.260;2022-07-10T04:10:17;7.43;;;2.40;;
26656;SDS011;14279;50.010;8.260;2022-07-10T04:12:44;2.23;;;1.73;;
26656;SDS011;14279;50.010;8.260;2022-07-10T04:15:09;6.60;;;2.23;;
26656;SDS011;14279;50.010;8.260;2022-07-10T04:17:35;3.33;;;1.70;;
26656;SDS011;14279;50.010;8.260;2022-07-10T04:20:00;5.73;;;1.70;;
26656;SDS011;14279;50.010;8.260;2022-07-10T04:22:26;2.70;;;1.70;;
26656;SDS011;14279;50.010;8.260;2022-07-10T04:24:52;6.90;;;2.00;;
26656;SDS011;14279;50.010;8.260;2022-07-10T04:27:18;4.67;;;2.00;;
26656;SDS011;14279;50.010;8.260;2022-07-10T04:29:44;10.00;;;2.23;;
26656;SDS011;14279;50.010;8.260;2022-07-10T04:32:09;6.17;;;1.57;;
26656;SDS011;14279;50.010;8.260;2022-07-10T04:34:34;9.20;;;2.20;;
26656;SDS011;14279;50.010;8.260;2022-07-10T04:37:00;5.53;;;1.70;;
26656;SDS011;14279;50.010;8.260;2022-07-10T04:39:25;3.67;;;1.70;;
26656;SDS011;14279;50.010;8.260;2022-07-10T04:41:50;9.50;;;1.53;;
26656;SDS011;14279;50.010;8.260;2022-07-10T04:44:16;6.70;;;2.00;;
26656;SDS011;14279;50.010;8.260;2022-07-10T04:46:41;8.37;;;2.30;;
26656;SDS011;14279;50.010;8.260;2022-07-10T04:49:06;10.10;;;1.90;;
26656;SDS011;14279;50.010;8.260;2022-07-10T04:51:31;5.77;;;1.60;;
26656;SDS011;14279;50.010;8.260;2022-07-10T04:53:57;10.03;;;1.97;;
26656;SDS011;14279;50.010;8.260;2022-07-10T04:56:22;9.53;;;2.27;;
26656;SDS011;14279;50.010;8.260;2022-07-10T04:58:47;9.50;;;2.13;;
26656;SDS011;14279;50.010;8.260;2022-07-10T05:01:13;4.90;;;1.50;;
26656;SDS011;14279;50.010;8.260;2022-07-10T05:03:38;5.97;;;1.77;;
26656;SDS011;14279;50.010;8.260;2022-07-10T05:06:03;8.37;;;1.70;;
26656;SDS011;14279;50.010;8.260;2022-07-10T05:08:29;4.97;;;1.50;;
26656;SDS011;14279;50.010;8.260;2022-07-10T05:10:54;3.83;;;1.83;;
26656;SDS011;14279;50.010;8.260;2022-07-10T05:13:19;5.93;;;1.77;;
26656;SDS011;14279;50.010;8.260;2022-07-10T05:15:45;7.30;;;1.70;;
26656;SDS011;14279;50.010;8.260;2022-07-10T05:18:12;7.03;;;2.10;;
26656;SDS011;14279;50.010;8.260;2022-07-10T05:20:37;8.13;;;1.73;;
26656;SDS011;14279;50.010;8.260;2022-07-10T05:23:06;3.73;;;1.90;;
26656;SDS011;14279;50.010;8.260;2022-07-10T05:25:32;6.67;;;1.90;;
26656;SDS011;14279;50.010;8.260;2022-07-10T05:27:57;5.43;;;1.70;;
26656;SDS011;14279;50.010;8.260;2022-07-10T05:30:22;8.63;;;1.80;;
26656;SDS011;14279;50.010;8.260;2022-07-10T05:32:48;4.63;;;1.83;;
26656;SDS011;14279;50.010;8.260;2022-07-10T05:35:14;7.60;;;2.10;;
26656;SDS011;14279;50.010;8.260;2022-07-10T05:37:39;4.50;;;1.80;;
26656;SDS011;14279;50.010;8.260;2022-07-10T05:40:04;3.43;;;1.20;;
26656;SDS011;14279;50.010;8.260;2022-07-10T05:42:30;10.90;;;1.53;;
26656;SDS011;14279;50.010;8.260;2022-07-10T05:44:55;2.13;;;1.60;;
26656;SDS011;14279;50.010;8.260;2022-07-10T05:47:21;8.03;;;1.73;;
26656;SDS011;14279;50.010;8.260;2022-07-10T05:49:46;6.80;;;2.07;;
26656;SDS011;14279;50.010;8.260;2022-07-10T05:52:11;9.40;;;2.17;;
26656;SDS011;14279;50.010;8.260;2022-07-10T05:54:37;4.57;;;1.40;;
26656;SDS011;14279;50.010;8.260;2022-07-10T05:57:03;9.37;;;1.60;;
26656;SDS011;14279;50.010;8.260;2022-07-10T05:59:29;10.13;;;1.70;;
26656;SDS011;14279;50.010;8.260;2022-07-10T06:01:57;5.33;;;1.60;;
26656;SDS011;14279;50.010;8.260;2022-07-10T06:04:23;6.67;;;1.90;;
26656;SDS011;14279;50.010;8.260;2022-07-10T06:06:48;2.73;;;1.43;;
26656;SDS011;14279;50.010;8.260;2022-07-10T06:09:13;8.33;;;1.63;;
26656;SDS011;14279;50.010;8.260;2022-07-10T06:11:38;4.93;;;1.70;;
26656;SDS011;14279;50.010;8.260;2022-07-10T06:14:06;3.47;;;1.57;;
26656;SDS011;14279;50.010;8.260;2022-07-10T06:16:31;6.80;;;1.53;;
26656;SDS011;14279;50.010;8.260;2022-07-10T06:18:57;7.93;;;1.40;;
26656;SDS011;14279;50.010;8.260;2022-07-10T06:21:22;4.90;;;1.53;;
26656;SDS011;14279;50.010;8.260;2022-07-10T06:23:48;5.63;;;1.40;;
26656;SDS011;14279;50.010;8.260;2022-07-10T06:26:13;4.77;;;1.40;;
26656;SDS011;14279;50.010;8.260;2022-07-10T06:28:38;3.80;;;1.50;;
26656;SDS011;14279;50.010;8.260;2022-07-10T06:31:06;6.50;;;1.70;;
26656;SDS011;14279;50.010;8.260;2022-07-10T06:33:32;4.50;;;1.30;;
26656;SDS011;14279;50.010;8.260;2022-07-10T06:35:57;7.33;;;1.70;;
26656;SDS011;14279;50.010;8.260;2022-07-10T06:38:23;4.43;;;1.40;;
26656;SDS011;14279;50.010;8.260;2022-07-10T06:40:48;6.00;;;1.30;;
26656;SDS011;14279;50.010;8.260;2022-07-10T06:43:14;5.83;;;1.10;;
26656;SDS011;14279;50.010;8.260;2022-07-10T06:45:40;3.93;;;1.37;;
26656;SDS011;14279;50.010;8.260;2022-07-10T06:48:06;4.73;;;1.50;;
26656;SDS011;14279;50.010;8.260;2022-07-10T06:50:31;5.00;;;1.53;;
26656;SDS011;14279;50.010;8.260;2022-07-10T06:52:57;9.03;;;1.50;;
26656;SDS011;14279;50.010;8.260;2022-07-10T06:55:23;8.20;;;1.87;;
26656;SDS011;14279;50.010;8.260;2022-07-10T06:57:50;2.53;;;1.10;;
26656;SDS011;14279;50.010;8.260;2022-07-10T07:00:15;4.20;;;1.10;;
26656;SDS011;14279;50.010;8.260;2022-07-10T07:02:40;3.90;;;1.33;;
26656;SDS011;14279;50.010;8.260;2022-07-10T07:05:06;5.90;;;1.30;;
26656;SDS011;14279;50.010;8.260;2022-07-10T07:07:32;9.00;;;1.40;;
26656;SDS011;14279;50.010;8.260;2022-07-10T07:09:58;5.27;;;1.40;;
26656;SDS011;14279;50.010;8.260;2022-07-10T07:12:23;3.67;;;1.37;;
26656;SDS011;14279;50.010;8.260;2022-07-10T07:14:48;5.13;;;1.30;;
26656;SDS011;14279;50.010;8.260;2022-07-10T07:17:14;6.37;;;1.20;;
26656;SDS011;14279;50.010;8.260;2022-07-10T07:19:46;8.47;;;1.67;;
26656;SDS011;14279;50.010;8.260;2022-07-10T07:22:30;6.83;;;1.53;;
26656;SDS011;14279;50.010;8.260;2022-07-10T07:25:14;6.97;;;1.13;;
26656;SDS011;14279;50.010;8.260;2022-07-10T07:27:39;3.90;;;1.47;;
26656;SDS011;14279;50.010;8.260;2022-07-10T07:30:08;9.23;;;1.60;;
26656;SDS011;14279;50.010;8.260;2022-07-10T07:32:36;4.70;;;1.07;;
26656;SDS011;14279;50.010;8.260;2022-07-10T07:35:05;4.90;;;1.70;;
26656;SDS011;14279;50.010;8.260;2022-07-10T07:37:40;5.83;;;1.50;;
26656;SDS011;14279;50.010;8.260;2022-07-10T07:40:08;2.93;;;1.10;;
26656;SDS011;14279;50.010;8.260;2022-07-10T07:42:34;5.10;;;1.30;;
26656;SDS011;14279;50.010;8.260;2022-07-10T07:45:00;3.60;;;1.50;;
26656;SDS011;14279;50.010;8.260;2022-07-10T07:47:25;6.67;;;1.20;;
26656;SDS011;14279;50.010;8.260;2022-07-10T07:49:51;1.77;;;1.00;;
26656;SDS011;14279;50.010;8.260;2022-07-10T07:52:17;8.33;;;1.30;;
26656;SDS011;14279;50.010;8.260;2022-07-10T07:54:42;6.33;;;1.80;;
26656;SDS011;14279;50.010;8.260;2022-07-10T07:57:07;4.73;;;1.60;;
26656;SDS011;14279;50.010;8.260;2022-07-10T07:59:33;3.33;;;1.07;;
26656;SDS011;14279;50.010;8.260;2022-07-10T08:02:01;4.37;;;1.40;;
26656;SDS011;14279;50.010;8.260;2022-07-10T08:04:26;3.97;;;1.20;;
26656;SDS011;14279;50.010;8.260;2022-07-10T08:06:51;1.57;;;0.83;;
26656;SDS011;14279;50.010;8.260;2022-07-10T08:09:18;3.57;;;1.53;;
26656;SDS011;14279;50.010;8.260;2022-07-10T08:11:44;4.40;;;1.13;;
26656;SDS011;14279;50.010;8.260;2022-07-10T08:14:09;6.60;;;1.30;;
26656;SDS011;14279;50.010;8.260;2022-07-10T08:16:34;5.67;;;1.83;;
26656;SDS011;14279;50.010;8.260;2022-07-10T08:19:00;2.07;;;1.27;;
26656;SDS011;14279;50.010;8.260;2022-07-10T08:21:25;6.10;;;1.10;;
26656;SDS011;14279;50.010;8.260;2022-07-10T08:23:51;4.93;;;1.30;;
26656;SDS011;14279;50.010;8.260;2022-07-10T08:26:17;2.97;;;1.10;;
26656;SDS011;14279;50.010;8.260;2022-07-10T08:28:43;4.07;;;1.50;;
26656;SDS011;14279;50.010;8.260;2022-07-10T08:31:08;2.23;;;1.20;;
26656;SDS011;14279;50.010;8.260;2022-07-10T08:33:33;5.50;;;1.80;;
26656;SDS011;14279;50.010;8.260;2022-07-10T08:35:58;4.70;;;1.80;;
26656;SDS011;14279;50.010;8.260;2022-07-10T08:38:42;2.30;;;1.13;;
26656;SDS011;14279;50.010;8.260;2022-07-10T08:41:08;5.50;;;1.33;;
26656;SDS011;14279;50.010;8.260;2022-07-10T08:43:37;6.80;;;1.50;;
26656;SDS011;14279;50.010;8.260;2022-07-10T08:46:02;5.67;;;1.57;;
26656;SDS011;14279;50.010;8.260;2022-07-10T08:48:29;3.07;;;1.60;;
26656;SDS011;14279;50.010;8.260;2022-07-10T08:50:58;1.63;;;0.90;;
26656;SDS011;14279;50.010;8.260;2022-07-10T08:53:31;6.00;;;1.40;;
26656;SDS011;14279;50.010;8.260;2022-07-10T08:55:57;4.57;;;1.50;;
26656;SDS011;14279;50.010;8.260;2022-07-10T08:58:23;4.80;;;1.67;;
26656;SDS011;14279;50.010;8.260;2022-07-10T09:00:49;6.03;;;1.50;;
26656;SDS011;14279;50.010;8.260;2022-07-10T09:03:15;2.70;;;0.97;;
26656;SDS011;14279;50.010;8.260;2022-07-10T09:05:43;4.10;;;1.57;;
26656;SDS011;14279;50.010;8.260;2022-07-10T09:08:25;4.13;;;1.20;;
26656;SDS011;14279;50.010;8.260;2022-07-10T09:11:14;10.97;;;2.00;;
26656;SDS011;14279;50.010;8.260;2022-07-10T09:13:53;9.90;;;1.50;;
26656;SDS011;14279;50.010;8.260;2022-07-10T09:18:48;4.43;;;1.27;;
26656;SDS011;14279;50.010;8.260;2022-07-10T09:21:13;3.27;;;1.20;;
26656;SDS011;14279;50.010;8.260;2022-07-10T09:23:38;3.43;;;1.20;;
26656;SDS011;14279;50.010;8.260;2022-07-10T09:26:04;5.50;;;1.20;;
26656;SDS011;14279;50.010;8.260;2022-07-10T09:28:29;6.50;;;1.23;;
26656;SDS011;14279;50.010;8.260;2022-07-10T09:30:54;4.93;;;1.43;;
26656;SDS011;14279;50.010;8.260;2022-07-10T09:33:24;5.23;;;1.80;;
26656;SDS011;14279;50.010;8.260;2022-07-10T09:41:14;7.63;;;2.17;;
26656;SDS011;14279;50.010;8.260;2022-07-10T09:46:10;3.50;;;1.57;;
26656;SDS011;14279;50.010;8.260;2022-07-10T09:48:36;4.43;;;1.23;;
26656;SDS011;14279;50.010;8.260;2022-07-10T09:51:01;5.53;;;1.70;;
26656;SDS011;14279;50.010;8.260;2022-07-10T09:53:27;2.20;;;1.37;;
26656;SDS011;14279;50.010;8.260;2022-07-10T09:55:52;5.33;;;1.40;;
26656;SDS011;14279;50.010;8.260;2022-07-10T09:58:20;6.83;;;1.90;;
26656;SDS011;14279;50.010;8.260;2022-07-10T10:00:53;4.43;;;1.57;;
26656;SDS011;14279;50.010;8.260;2022-07-10T10:03:21;5.07;;;1.50;;
26656;SDS011;14279;50.010;8.260;2022-07-10T10:08:19;5.90;;;2.00;;
26656;SDS011;14279;50.010;8.260;2022-07-10T10:10:57;5.03;;;1.97;;
26656;SDS011;14279;50.010;8.260;2022-07-10T10:13:26;3.40;;;1.17;;
26656;SDS011;14279;50.010;8.260;2022-07-10T10:15:53;7.70;;;1.63;;
26656;SDS011;14279;50.010;8.260;2022-07-10T10:18:20;4.10;;;1.37;;
26656;SDS011;14279;50.010;8.260;2022-07-10T10:20:47;5.43;;;1.80;;
26656;SDS011;14279;50.010;8.260;2022-07-10T10:23:15;4.17;;;1.50;;
26656;SDS011;14279;50.010;8.260;2022-07-10T10:25:43;4.93;;;1.20;;
26656;SDS011;14279;50.010;8.260;2022-07-10T10:28:09;2.53;;;1.20;;
26656;SDS011;14279;50.010;8.260;2022-07-10T10:30:38;5.70;;;1.70;;
26656;SDS011;14279;50.010;8.260;2022-07-10T10:33:54;5.20;;;1.90;;
26656;SDS011;14279;50.010;8.260;2022-07-10T10:35:57;5.10;;;2.00;;
26656;SDS011;14279;50.010;8.260;2022-07-10T10:38:23;6.33;;;1.67;;
26656;SDS011;14279;50.010;8.260;2022-07-10T10:40:48;6.93;;;1.50;;
26656;SDS011;14279;50.010;8.260;2022-07-10T10:43:18;4.80;;;1.53;;
26656;SDS011;14279;50.010;8.260;2022-07-10T10:45:45;5.77;;;1.63;;
26656;SDS011;14279;50.010;8.260;2022-07-10T10:48:13;5.00;;;1.87;;
26656;SDS011;14279;50.010;8.260;2022-07-10T10:50:50;4.60;;;1.73;;
26656;SDS011;14279;50.010;8.260;2022-07-10T10:53:18;6.40;;;1.50;;
26656;SDS011;14279;50.010;8.260;2022-07-10T10:58:25;6.03;;;1.70;;
26656;SDS011;14279;50.010;8.260;2022-07-10T11:00:51;6.53;;;1.90;;
26656;SDS011;14279;50.010;8.260;2022-07-10T11:03:18;4.90;;;1.47;;
26656;SDS011;14279;50.010;8.260;2022-07-10T11:05:47;3.83;;;1.20;;
26656;SDS011;14279;50.010;8.260;2022-07-10T11:08:34;5.40;;;1.70;;
26656;SDS011;14279;50.010;8.260;2022-07-10T11:11:36;8.32;;;1.63;;
26656;SDS011;14279;50.010;8.260;2022-07-10T11:14:03;7.30;;;1.60;;
26656;SDS011;14279;50.010;8.260;2022-07-10T11:16:30;6.38;;;1.60;;
26656;SDS011;14279;50.010;8.260;2022-07-10T11:18:57;4.43;;;1.73;;
26656;SDS011;14279;50.010;8.260;2022-07-10T11:21:23;4.13;;;1.60;;
26656;SDS011;14279;50.010;8.260;2022-07-10T11:26:57;5.60;;;1.60;;
26656;SDS011;14279;50.010;8.260;2022-07-10T11:29:35;2.70;;;1.40;;
26656;SDS011;14279;50.010;8.260;2022-07-10T11:32:01;4.90;;;1.50;;
26656;SDS011;14279;50.010;8.260;2022-07-10T11:34:33;5.13;;;1.60;;
26656;SDS011;14279;50.010;8.260;2022-07-10T11:36:59;5.03;;;1.60;;
26656;SDS011;14279;50.010;8.260;2022-07-10T11:39:25;5.50;;;1.50;;
26656;SDS011;14279;50.010;8.260;2022-07-10T11:41:50;3.50;;;1.30;;
26656;SDS011;14279;50.010;8.260;2022-07-10T11:44:16;6.37;;;1.40;;
26656;SDS011;14279;50.010;8.260;2022-07-10T11:46:43;6.43;;;1.80;;
26656;SDS011;14279;50.010;8.260;2022-07-10T11:49:14;5.57;;;1.27;;
26656;SDS011;14279;50.010;8.260;2022-07-10T11:51:41;4.00;;;1.40;;
26656;SDS011;14279;50.010;8.260;2022-07-10T11:54:08;4.30;;;1.20;;
26656;SDS011;14279;50.010;8.260;2022-07-10T11:56:41;6.40;;;1.53;;
26656;SDS011;14279;50.010;8.260;2022-07-10T11:59:12;5.80;;;1.60;;
26656;SDS011;14279;50.010;8.260;2022-07-10T12:01:42;4.20;;;1.53;;
26656;SDS011;14279;50.010;8.260;2022-07-10T12:04:08;6.67;;;1.70;;
26656;SDS011;14279;50.010;8.260;2022-07-10T12:06:36;5.95;;;1.52;;
26656;SDS011;14279;50.010;8.260;2022-07-10T12:11:29;5.20;;;1.13;;
26656;SDS011;14279;50.010;8.260;2022-07-10T12:13:56;3.13;;;1.53;;
26656;SDS011;14279;50.010;8.260;2022-07-10T12:16:37;4.57;;;1.40;;
26656;SDS011;14279;50.010;8.260;2022-07-10T12:19:03;3.90;;;1.27;;
26656;SDS011;14279;50.010;8.260;2022-07-10T12:21:31;2.83;;;1.47;;
26656;SDS011;14279;50.010;8.260;2022-07-10T12:23:56;5.07;;;1.53;;
26656;SDS011;14279;50.010;8.260;2022-07-10T12:26:22;5.43;;;1.63;;
26656;SDS011;14279;50.010;8.260;2022-07-10T12:28:51;3.77;;;1.33;;
26656;SDS011;14279;50.010;8.260;2022-07-10T12:31:21;3.70;;;1.20;;
26656;SDS011;14279;50.010;8.260;2022-07-10T12:33:50;3.60;;;1.17;;
26656;SDS011;14279;50.010;8.260;2022-07-10T12:36:17;1.10;;;1.00;;
26656;SDS011;14279;50.010;8.260;2022-07-10T12:38:42;3.10;;;1.53;;
26656;SDS011;14279;50.010;8.260;2022-07-10T12:41:18;3.10;;;1.07;;
26656;SDS011;14279;50.010;8.260;2022-07-10T12:43:47;2.10;;;0.90;;
26656;SDS011;14279;50.010;8.260;2022-07-10T12:46:16;3.23;;;1.03;;
26656;SDS011;14279;50.010;8.260;2022-07-10T12:51:44;2.70;;;0.97;;
26656;SDS011;14279;50.010;8.260;2022-07-10T12:56:56;3.27;;;1.17;;
26656;SDS011;14279;50.010;8.260;2022-07-10T12:59:22;4.60;;;0.97;;
26656;SDS011;14279;50.010;8.260;2022-07-10T13:01:48;1.73;;;1.23;;
26656;SDS011;14279;50.010;8.260;2022-07-10T13:04:13;6.67;;;1.47;;
26656;SDS011;14279;50.010;8.260;2022-07-10T13:06:39;2.60;;;1.00;;
26656;SDS011;14279;50.010;8.260;2022-07-10T13:09:18;1.57;;;0.80;;
26656;SDS011;14279;50.010;8.260;2022-07-10T13:11:52;3.67;;;0.87;;
26656;SDS011;14279;50.010;8.260;2022-07-10T13:14:18;1.63;;;0.87;;
26656;SDS011;14279;50.010;8.260;2022-07-10T13:16:44;2.00;;;1.00;;
26656;SDS011;14279;50.010;8.260;2022-07-10T13:19:10;3.20;;;1.30;;
26656;SDS011;14279;50.010;8.260;2022-07-10T13:21:35;2.40;;;1.27;;
26656;SDS011;14279;50.010;8.260;2022-07-10T13:24:01;2.97;;;1.10;;
26656;SDS011;14279;50.010;8.260;2022-07-10T13:26:28;1.53;;;1.10;;
26656;SDS011;14279;50.010;8.260;2022-07-10T13:28:54;1.13;;;1.00;;
26656;SDS011;14279;50.010;8.260;2022-07-10T13:31:19;3.13;;;1.03;;
26656;SDS011;14279;50.010;8.260;2022-07-10T13:33:45;2.00;;;1.00;;
26656;SDS011;14279;50.010;8.260;2022-07-10T13:36:10;2.93;;;1.00;;
26656;SDS011;14279;50.010;8.260;2022-07-10T13:38:35;2.53;;;1.03;;
26656;SDS011;14279;50.010;8.260;2022-07-10T13:41:02;4.10;;;1.20;;
26656;SDS011;14279;50.010;8.260;2022-07-10T13:43:27;2.13;;;1.03;;
26656;SDS011;14279;50.010;8.260;2022-07-10T13:45:56;4.93;;;1.20;;
26656;SDS011;14279;50.010;8.260;2022-07-10T13:48:22;4.00;;;1.30;;
26656;SDS011;14279;50.010;8.260;2022-07-10T13:50:47;3.33;;;1.13;;
26656;SDS011;14279;50.010;8.260;2022-07-10T13:53:13;4.87;;;1.10;;
26656;SDS011;14279;50.010;8.260;2022-07-10T13:55:39;4.13;;;0.90;;
26656;SDS011;14279;50.010;8.260;2022-07-10T13:58:04;3.13;;;1.30;;
26656;SDS011;14279;50.010;8.260;2022-07-10T14:00:30;6.83;;;1.63;;
26656;SDS011;14279;50.010;8.260;2022-07-10T14:02:55;3.43;;;1.00;;
26656;SDS011;14279;50.010;8.260;2022-07-10T14:05:22;2.37;;;0.90;;
26656;SDS011;14279;50.010;8.260;2022-07-10T14:07:48;3.63;;;1.27;;
26656;SDS011;14279;50.010;8.260;2022-07-10T14:10:13;4.27;;;1.00;;
26656;SDS011;14279;50.010;8.260;2022-07-10T14:12:39;2.97;;;1.47;;
26656;SDS011;14279;50.010;8.260;2022-07-10T14:15:05;1.63;;;1.00;;
26656;SDS011;14279;50.010;8.260;2022-07-10T14:17:31;6.03;;;1.10;;
26656;SDS011;14279;50.010;8.260;2022-07-10T14:19:56;1.20;;;0.90;;
26656;SDS011;14279;50.010;8.260;2022-07-10T14:22:21;2.60;;;1.00;;
26656;SDS011;14279;50.010;8.260;2022-07-10T14:24:47;3.53;;;0.90;;
26656;SDS011;14279;50.010;8.260;2022-07-10T14:27:13;6.17;;;1.00;;
26656;SDS011;14279;50.010;8.260;2022-07-10T14:29:39;3.43;;;1.17;;
26656;SDS011;14279;50.010;8.260;2022-07-10T14:32:04;4.63;;;1.07;;
26656;SDS011;14279;50.010;8.260;2022-07-10T14:34:29;0.70;;;0.70;;
26656;SDS011;14279;50.010;8.260;2022-07-10T14:36:55;2.17;;;0.97;;
26656;SDS011;14279;50.010;8.260;2022-07-10T14:39:20;3.33;;;0.83;;
26656;SDS011;14279;50.010;8.260;2022-07-10T14:41:45;1.53;;;0.90;;
26656;SDS011;14279;50.010;8.260;2022-07-10T14:44:11;1.87;;;0.87;;
26656;SDS011;14279;50.010;8.260;2022-07-10T14:46:36;1.40;;;0.80;;
26656;SDS011;14279;50.010;8.260;2022-07-10T14:49:01;0.80;;;0.80;;
26656;SDS011;14279;50.010;8.260;2022-07-10T14:51:27;1.37;;;1.10;;
26656;SDS011;14279;50.010;8.260;2022-07-10T14:53:53;0.80;;;0.70;;
26656;SDS011;14279;50.010;8.260;2022-07-10T14:56:19;1.93;;;1.13;;
26656;SDS011;14279;50.010;8.260;2022-07-10T14:58:48;1.10;;;0.93;;
26656;SDS011;14279;50.010;8.260;2022-07-10T15:01:14;1.20;;;0.77;;
26656;SDS011;14279;50.010;8.260;2022-07-10T15:03:42;0.80;;;0.80;;
26656;SDS011;14279;50.010;8.260;2022-07-10T15:06:07;1.07;;;0.80;;
26656;SDS011;14279;50.010;8.260;2022-07-10T15:08:33;0.80;;;0.80;;
26656;SDS011;14279;50.010;8.260;2022-07-10T15:10:59;0.90;;;0.80;;
26656;SDS011;14279;50.010;8.260;2022-07-10T15:13:24;0.97;;;0.70;;